createdAt,value
2022-09-25T00:03:38.950Z,73.14
2022-09-25T00:09:10.524Z,73.13
2022-09-25T00:14:42.280Z,73.21
2022-09-25T00:20:14.274Z,73.31
2022-09-25T00:25:46.105Z,73.31
2022-09-25T00:31:17.546Z,73.66
2022-09-25T00:36:49.173Z,73.63
2022-09-25T00:42:20.854Z,73.44
2022-09-25T00:47:52.698Z,73.44
2022-09-25T00:53:24.781Z,73.45
2022-09-25T00:58:56.145Z,73.35
2022-09-25T01:04:27.556Z,73.55
2022-09-25T01:09:58.882Z,73.49
2022-09-25T01:15:30.205Z,73.43
2022-09-25T01:21:02.108Z,73.40
2022-09-25T01:26:33.647Z,73.50
2022-09-25T01:32:05.366Z,73.53
2022-09-25T01:37:36.904Z,73.52
2022-09-25T01:43:08.383Z,73.54
2022-09-25T01:48:39.858Z,73.55
2022-09-25T01:59:43.430Z,73.61
2022-09-25T02:05:15.369Z,73.66
2022-09-25T02:10:47.037Z,73.68
2022-09-25T02:16:18.579Z,73.72
2022-09-25T02:21:50.120Z,73.73
2022-09-25T02:27:22.058Z,73.83
2022-09-25T02:32:53.646Z,73.80
2022-09-25T02:38:25.558Z,73.87
2022-09-25T02:43:57.335Z,73.88
2022-09-25T02:54:58.555Z,73.99
2022-09-25T03:00:30.519Z,74.00
2022-09-25T03:11:34.136Z,74.60
2022-09-25T03:17:05.831Z,74.41
2022-09-25T03:22:37.564Z,74.39
2022-09-25T03:28:09.400Z,74.22
2022-09-25T03:33:41.420Z,74.20
2022-09-25T03:39:13.039Z,74.63
2022-09-25T03:44:44.709Z,74.56
2022-09-25T03:47:08.125Z,74.67
2022-09-25T03:52:39.611Z,74.49
2022-09-25T03:58:11.141Z,74.39
2022-09-25T04:09:11.960Z,74.34
2022-09-25T04:20:14.796Z,74.32
2022-09-25T04:25:46.057Z,74.45
2022-09-25T04:31:17.304Z,74.50
2022-09-25T04:36:48.734Z,74.52
2022-09-25T04:42:20.437Z,74.49
2022-09-25T04:47:51.828Z,74.55
2022-09-25T04:53:23.532Z,74.54
2022-09-25T04:58:54.757Z,74.61
2022-09-25T05:04:26.031Z,74.60
2022-09-25T05:09:57.284Z,74.66
2022-09-25T05:15:28.597Z,74.62
2022-09-25T05:26:33.115Z,74.44
2022-09-25T05:32:04.462Z,74.49
2022-09-25T05:37:35.837Z,74.44
2022-09-25T05:43:07.018Z,74.51
2022-09-25T05:48:38.468Z,74.52
2022-09-25T05:54:10.191Z,74.50
2022-09-25T06:05:12.849Z,74.37
2022-09-25T06:10:44.155Z,74.44
2022-09-25T06:16:15.713Z,74.31
2022-09-25T06:21:46.927Z,74.29
2022-09-25T06:38:16.934Z,74.12
2022-09-25T06:43:48.255Z,74.15
2022-09-25T06:49:19.356Z,74.05
2022-09-25T06:54:50.828Z,74.03
2022-09-25T07:00:22.119Z,73.94
2022-09-25T07:05:53.486Z,73.84
2022-09-25T07:11:24.788Z,73.66
2022-09-25T07:16:56.548Z,73.55
2022-09-25T07:22:28.006Z,73.39
2022-09-25T07:27:59.216Z,73.28
2022-09-25T07:33:30.829Z,73.11
2022-09-25T07:39:02.640Z,72.72
2022-09-25T07:44:38.272Z,72.62
2022-09-25T07:50:05.385Z,72.60
2022-09-25T07:55:43.846Z,72.04
2022-09-25T08:01:15.301Z,71.71
2022-09-25T08:06:46.486Z,71.89
2022-09-25T08:12:17.768Z,72.11
2022-09-25T08:17:49.125Z,71.83
2022-09-25T08:23:20.266Z,71.82
2022-09-25T08:28:51.706Z,71.70
2022-09-25T08:39:54.747Z,71.37
2022-09-25T08:45:26.223Z,71.34
2022-09-25T08:50:58.091Z,71.17
2022-09-25T09:01:58.960Z,70.63
2022-09-25T09:07:30.668Z,70.50
2022-09-25T09:13:01.941Z,70.03
2022-09-25T09:18:33.308Z,69.95
2022-09-25T09:24:04.711Z,68.39
2022-09-25T09:29:35.998Z,68.59
2022-09-25T09:35:07.590Z,68.59
2022-09-25T09:40:38.987Z,68.35
2022-09-25T09:51:39.843Z,67.36
2022-09-25T09:57:11.198Z,67.44
2022-09-25T10:02:42.542Z,66.05
2022-09-25T10:08:13.812Z,66.23
2022-09-25T10:13:45.287Z,65.28
2022-09-25T10:19:17.001Z,64.02
2022-09-25T10:24:48.228Z,64.44
2022-09-25T10:30:19.627Z,64.37
2022-09-25T10:41:20.717Z,62.25
2022-09-25T10:46:52.366Z,60.57
2022-09-25T10:52:24.059Z,59.76
2022-09-25T10:57:55.387Z,58.56
2022-09-25T11:08:56.171Z,56.00
2022-09-25T11:14:27.496Z,55.21
2022-09-25T11:19:59.327Z,55.64
2022-09-25T11:25:30.671Z,56.16
2022-09-25T11:31:02.477Z,56.16
2022-09-25T11:36:34.220Z,55.53
2022-09-25T11:44:25.452Z,0.00
2022-09-25T11:49:56.539Z,54.79
2022-09-25T11:55:28.069Z,55.47
2022-09-25T12:00:59.320Z,56.29
2022-09-25T12:06:30.589Z,56.47
2022-09-25T12:12:01.965Z,56.65
2022-09-25T12:17:33.255Z,56.77
2022-09-25T12:23:04.608Z,55.74
2022-09-25T12:28:35.940Z,56.49
2022-09-25T12:34:07.342Z,57.43
2022-09-25T12:39:38.541Z,57.72
2022-09-25T12:45:09.949Z,57.53
2022-09-25T12:50:41.746Z,57.55
2022-09-25T12:56:13.494Z,57.15
2022-09-25T13:01:45.444Z,56.87
2022-09-25T13:07:17.117Z,57.00
2022-09-25T13:12:48.907Z,57.03
2022-09-25T13:23:49.699Z,56.96
2022-09-25T13:29:21.540Z,57.10
2022-09-25T13:34:53.408Z,57.57
2022-09-25T13:40:25.328Z,57.93
2022-09-25T13:45:57.338Z,58.26
2022-09-25T13:51:28.757Z,58.89
2022-09-25T13:57:00.080Z,59.25
2022-09-25T14:08:01.003Z,59.41
2022-09-25T14:13:32.686Z,59.41
2022-09-25T14:19:04.162Z,59.36
2022-09-25T14:24:35.525Z,59.49
2022-09-25T14:35:36.300Z,59.48
2022-09-25T14:41:07.943Z,58.96
2022-09-25T14:46:39.477Z,58.34
2022-09-25T14:57:41.577Z,57.83
2022-09-25T15:03:12.794Z,57.73
2022-09-25T15:19:46.734Z,58.40
2022-09-25T15:25:18.321Z,58.67
2022-09-25T15:30:49.931Z,58.83
2022-09-25T15:36:21.568Z,59.24
2022-09-25T15:41:52.811Z,59.19
2022-09-25T15:47:24.265Z,59.60
2022-09-25T15:52:55.893Z,59.78
2022-09-25T15:58:27.411Z,60.14
2022-09-25T16:03:58.832Z,59.91
2022-09-25T16:09:30.105Z,60.06
2022-09-25T16:15:01.451Z,60.26
2022-09-25T16:20:32.794Z,60.73
2022-09-25T16:31:36.205Z,61.37
2022-09-25T16:37:08.510Z,61.69
2022-09-25T16:42:39.986Z,61.85
2022-09-25T16:48:11.537Z,61.89
2022-09-25T16:53:43.323Z,61.98
2022-09-25T16:59:14.997Z,61.98
2022-09-25T17:04:46.169Z,62.19
2022-09-25T17:10:17.516Z,62.24
2022-09-25T17:21:18.411Z,62.62
2022-09-25T17:26:50.103Z,62.82
2022-09-25T17:32:21.334Z,62.99
2022-09-25T17:37:52.651Z,63.17
2022-09-25T17:43:24.022Z,63.32
2022-09-25T17:48:55.418Z,63.45
2022-09-25T17:54:27.229Z,63.61
2022-09-25T17:59:58.537Z,63.75
2022-09-25T18:05:30.315Z,63.81
2022-09-25T18:11:02.067Z,63.93
2022-09-25T18:16:33.519Z,64.18
2022-09-25T18:22:05.230Z,64.36
2022-09-25T18:27:36.977Z,64.58
2022-09-25T18:33:08.318Z,64.78
2022-09-25T18:38:40.109Z,64.93
2022-09-25T18:44:11.915Z,65.14
2022-09-25T18:55:13.425Z,65.32
2022-09-25T19:00:44.932Z,65.48
2022-09-25T19:06:18.103Z,65.67
2022-09-25T19:11:49.656Z,65.82
2022-09-25T19:17:21.261Z,66.18
2022-09-25T19:22:52.711Z,66.27
2022-09-25T19:28:24.456Z,66.26
2022-09-25T19:33:56.132Z,66.39
2022-09-25T19:39:27.562Z,66.59
2022-09-25T19:50:27.878Z,66.76
2022-09-25T19:58:23.317Z,67.16
2022-09-25T20:03:52.233Z,67.17
2022-09-25T20:14:52.913Z,67.54
2022-09-25T20:20:24.246Z,67.57
2022-09-25T20:25:55.552Z,67.86
2022-09-25T20:31:27.057Z,68.09
2022-09-25T20:36:58.230Z,68.35
2022-09-25T20:42:29.531Z,68.64
2022-09-25T20:48:02.005Z,68.96
2022-09-25T20:53:33.744Z,69.24
2022-09-25T20:59:05.436Z,69.33
2022-09-25T21:04:36.721Z,69.42
2022-09-25T21:10:07.994Z,69.72
2022-09-25T21:15:39.378Z,69.75
2022-09-25T21:21:10.950Z,69.85
2022-09-25T21:26:42.509Z,69.89
2022-09-25T21:32:13.603Z,70.10
2022-09-25T21:37:45.199Z,70.16
2022-09-25T21:43:16.846Z,70.46
2022-09-25T21:48:48.053Z,70.55
2022-09-25T21:54:19.354Z,70.86
2022-09-25T21:59:50.695Z,70.97
2022-09-25T22:05:22.275Z,70.95
2022-09-25T22:10:53.701Z,70.97
2022-09-25T22:21:54.555Z,71.16
2022-09-25T22:27:25.977Z,71.54
2022-09-25T22:32:57.717Z,71.63
2022-09-25T22:38:29.423Z,71.71
2022-09-25T22:44:01.283Z,71.60
2022-09-25T23:00:31.205Z,71.53
2022-09-25T23:06:02.972Z,71.76
2022-09-25T23:11:34.596Z,71.95
2022-09-25T23:17:05.953Z,72.00
2022-09-25T23:22:37.396Z,72.12
2022-09-25T23:28:09.059Z,72.32
2022-09-25T23:33:40.487Z,72.45
2022-09-25T23:39:11.861Z,72.69
2022-09-25T23:44:43.122Z,72.99
2022-09-25T23:50:14.359Z,73.28
2022-09-25T23:55:45.695Z,73.35
